Time;durP1;ratioP1;P1;durP2;ratioP2;P2;SDS_P1;SDS_P2;PMS_P1;PMS_P2;Temp;Humidity;BMP_temperature;BMP_pressure;BME280_temperature;BME280_humidity;BME280_pressure;Samples;Min_cycle;Max_cycle;Signal;HPM_P1;HPM_P2
2021/04/27 00:01:38;;;;;;;3.17;1.83;;;;;;;11.05;29.99;97498.56;8396094;28;20203;-69
2021/04/27 00:05:39;;;;;;;4.03;2.00;;;;;;;11.04;30.04;97492.56;8398289;28;20210;-70
2021/04/27 00:09:41;;;;;;;2.17;1.70;;;;;;;11.06;30.09;97493.31;8398574;28;20678;-69
2021/04/27 00:13:43;;;;;;;4.73;2.17;;;;;;;11.05;30.14;97496.00;8398117;28;20223;-69
2021/04/27 00:17:46;;;;;;;3.77;1.80;;;;;;;10.99;30.31;97493.72;8397619;28;20218;-69
2021/04/27 00:21:48;;;;;;;2.67;1.77;;;;;;;10.95;30.48;97480.09;8397826;28;20199;-69
2021/04/27 00:25:50;;;;;;;3.40;2.00;;;;;;;10.92;30.27;97473.31;8397556;28;20226;-69
2021/04/27 00:29:52;;;;;;;2.53;1.90;;;;;;;10.86;30.19;97468.47;8376497;28;20215;-70
2021/04/27 00:33:55;;;;;;;3.57;2.20;;;;;;;10.77;30.18;97468.94;8364317;28;20246;-69
2021/04/27 00:37:57;;;;;;;3.67;2.07;;;;;;;10.65;30.45;97470.44;8365041;28;20207;-69
2021/04/27 00:41:59;;;;;;;5.63;1.70;;;;;;;10.68;30.37;97470.28;8364223;28;20243;-69
2021/04/27 00:46:01;;;;;;;2.30;1.70;;;;;;;10.78;30.16;97465.44;8363663;28;20218;-69
2021/04/27 00:50:06;;;;;;;4.17;1.87;;;;;;;10.78;30.26;97460.28;8364251;28;20212;-69
2021/04/27 00:54:07;;;;;;;4.63;2.10;;;;;;;10.50;30.25;97446.19;8363623;28;20227;-69
2021/04/27 00:58:09;;;;;;;4.67;2.00;;;;;;;10.44;30.73;97449.09;8363492;28;20203;-69
2021/04/27 01:02:11;;;;;;;3.00;1.97;;;;;;;10.68;30.39;97451.31;8366387;28;20210;-69
2021/04/27 01:06:14;;;;;;;9.63;1.93;;;;;;;10.48;30.43;97445.44;8396434;28;20289;-69
2021/04/27 01:10:18;;;;;;;8.03;2.17;;;;;;;10.51;30.49;97447.03;8396287;28;20207;-69
2021/04/27 01:14:27;;;;;;;8.10;2.27;;;;;;;10.56;30.05;97439.84;8396107;28;20226;-70
2021/04/27 01:18:32;;;;;;;3.50;2.10;;;;;;;10.60;30.40;97440.53;8396179;28;20206;-69
2021/04/27 01:22:44;;;;;;;2.83;1.80;;;;;;;10.53;30.62;97437.44;8396572;28;20218;-69
2021/04/27 01:26:49;;;;;;;3.67;1.80;;;;;;;10.49;30.60;97428.13;8395934;28;20195;-69
2021/04/27 01:30:51;;;;;;;7.20;1.90;;;;;;;10.43;30.40;97429.28;8395990;28;20230;-72
2021/04/27 01:34:53;;;;;;;4.03;2.07;;;;;;;10.44;30.32;97423.22;8395748;28;20226;-69
2021/04/27 01:38:55;;;;;;;3.30;1.93;;;;;;;10.31;30.80;97410.06;8395783;28;20195;-69
2021/04/27 01:42:59;;;;;;;6.30;1.80;;;;;;;10.25;31.25;97412.94;8395878;28;20234;-69
2021/04/27 01:47:03;;;;;;;3.23;2.10;;;;;;;10.01;31.76;97409.84;8395378;28;20203;-69
2021/04/27 01:51:08;;;;;;;3.37;1.90;;;;;;;10.17;31.26;97399.56;8395715;28;20672;-69
2021/04/27 01:55:11;;;;;;;4.97;1.83;;;;;;;10.27;31.28;97399.94;8395777;28;20694;-69
2021/04/27 01:59:14;;;;;;;3.20;1.73;;;;;;;10.23;31.83;97396.66;8395935;28;20198;-69
2021/04/27 02:03:16;;;;;;;4.30;2.00;;;;;;;10.18;31.55;97396.06;8395686;28;20199;-69
2021/04/27 02:07:18;;;;;;;4.53;1.90;;;;;;;10.12;31.78;97391.22;8395592;28;20452;-69
2021/04/27 02:11:20;;;;;;;4.10;2.10;;;;;;;10.02;31.77;97383.09;8395573;28;20217;-69
2021/04/27 02:15:24;;;;;;;3.23;2.10;;;;;;;10.05;31.77;97384.66;8395598;28;20231;-70
2021/04/27 02:19:29;;;;;;;4.97;1.93;;;;;;;10.16;31.62;97382.38;8395287;28;20200;-69
2021/04/27 02:23:32;;;;;;;2.97;1.73;;;;;;;10.05;31.69;97384.66;8394772;28;20203;-70
2021/04/27 02:27:35;;;;;;;3.33;2.27;;;;;;;9.99;31.92;97388.41;8394862;28;20207;-70
2021/04/27 02:31:39;;;;;;;3.13;1.77;;;;;;;10.00;31.85;97389.25;8395114;28;20293;-70
2021/04/27 02:35:42;;;;;;;6.17;2.37;;;;;;;9.92;31.69;97387.06;8394952;28;20226;-69
2021/04/27 02:39:44;;;;;;;4.33;2.20;;;;;;;9.98;31.86;97385.00;8394859;28;20507;-70
2021/04/27 02:43:46;;;;;;;4.17;1.93;;;;;;;9.92;31.79;97387.06;8399310;28;20208;-70
2021/04/27 02:47:49;;;;;;;4.50;2.10;;;;;;;9.97;31.76;97387.66;8400729;28;20199;-70
2021/04/27 02:51:51;;;;;;;4.07;1.97;;;;;;;9.87;31.82;97376.94;8400735;28;20662;-70
2021/04/27 02:55:53;;;;;;;5.40;2.40;;;;;;;9.71;32.01;97378.63;8400428;28;20226;-70
2021/04/27 02:59:55;;;;;;;3.80;2.17;;;;;;;9.52;32.65;97368.34;8400455;28;20199;-70
2021/04/27 03:03:58;;;;;;;5.37;2.27;;;;;;;9.88;32.14;97365.69;8400115;28;20720;-70
2021/04/27 03:08:00;;;;;;;6.20;2.23;;;;;;;9.82;32.21;97359.97;8400470;28;20234;-70
2021/04/27 03:12:02;;;;;;;2.47;1.80;;;;;;;9.65;32.66;97368.59;8400018;28;20203;-70
2021/04/27 03:16:04;;;;;;;3.17;1.93;;;;;;;9.68;32.62;97364.09;8399805;28;20218;-70
2021/04/27 03:20:10;;;;;;;3.40;1.87;;;;;;;9.55;32.75;97363.03;8400326;28;20269;-70
2021/04/27 03:24:12;;;;;;;6.97;2.20;;;;;;;9.63;32.67;97355.72;8400524;28;20202;-70
2021/04/27 03:28:14;;;;;;;4.30;2.00;;;;;;;9.47;32.33;97352.25;8399708;28;20599;-70
2021/04/27 03:32:16;;;;;;;5.20;1.97;;;;;;;9.52;32.61;97358.00;8399490;28;20223;-70
2021/04/27 03:36:18;;;;;;;4.53;2.10;;;;;;;9.48;32.42;97357.38;8399358;28;20199;-70
2021/04/27 03:40:20;;;;;;;5.30;2.17;;;;;;;9.55;32.67;97350.13;8399343;28;20256;-70
2021/04/27 03:44:22;;;;;;;3.77;1.90;;;;;;;9.40;32.31;97349.13;8399160;28;20214;-70
2021/04/27 03:48:24;;;;;;;5.53;2.20;;;;;;;9.46;32.10;97345.41;8399497;28;20210;-70
2021/04/27 03:52:27;;;;;;;4.47;2.10;;;;;;;9.36;32.93;97343.28;8398601;28;20210;-70
2021/04/27 03:56:29;;;;;;;4.40;1.80;;;;;;;9.50;32.35;97340.03;8399118;28;20290;-70
2021/04/27 04:00:31;;;;;;;5.53;2.77;;;;;;;9.47;32.45;97350.50;8398730;28;20204;-70
2021/04/27 04:04:33;;;;;;;4.80;2.33;;;;;;;9.50;32.70;97341.75;8398568;28;20290;-70
2021/04/27 04:08:36;;;;;;;5.53;2.67;;;;;;;9.42;33.47;97344.72;8398064;28;20202;-70
2021/04/27 04:12:38;;;;;;;10.50;2.53;;;;;;;9.39;32.34;97344.88;8397997;28;20230;-69
2021/04/27 04:16:40;;;;;;;5.80;2.50;;;;;;;9.49;32.64;97347.84;8398386;28;20230;-69
2021/04/27 04:20:42;;;;;;;4.50;2.60;;;;;;;9.51;32.42;97346.03;8397714;28;20219;-69
2021/04/27 04:24:45;;;;;;;6.67;2.23;;;;;;;9.39;32.60;97343.13;8397878;28;20253;-70
2021/04/27 04:28:47;;;;;;;6.10;2.43;;;;;;;9.49;32.10;97342.69;8397989;28;20261;-70
2021/04/27 04:32:50;;;;;;;6.27;2.67;;;;;;;9.61;32.51;97341.22;8397416;28;20647;-69
2021/04/27 04:36:52;;;;;;;5.50;2.67;;;;;;;9.59;32.76;97336.97;8397559;28;20295;-70
2021/04/27 04:40:55;;;;;;;7.87;2.70;;;;;;;9.64;32.26;97328.16;8397087;28;20202;-70
2021/04/27 04:44:56;;;;;;;5.77;2.27;;;;;;;9.74;31.88;97331.94;8397067;28;20221;-70
2021/04/27 04:48:59;;;;;;;6.60;3.30;;;;;;;9.88;31.65;97336.38;8396983;28;20210;-70
2021/04/27 04:53:01;;;;;;;7.40;2.40;;;;;;;9.72;31.46;97331.19;8398113;28;20222;-70
2021/04/27 04:57:04;;;;;;;5.10;2.47;;;;;;;9.88;31.25;97333.81;8397944;28;20214;-69
2021/04/27 05:01:06;;;;;;;6.33;3.03;;;;;;;10.07;31.19;97333.69;8397071;28;20225;-70
2021/04/27 05:05:10;;;;;;;11.30;2.87;;;;;;;10.20;31.22;97331.28;8397058;28;20211;-69
2021/04/27 05:09:13;;;;;;;5.37;2.60;;;;;;;10.27;31.08;97324.88;8397375;28;20214;-70
2021/04/27 05:13:16;;;;;;;9.47;3.13;;;;;;;10.28;31.19;97323.94;8397872;28;20262;-69
2021/04/27 05:17:19;;;;;;;7.87;3.40;;;;;;;10.36;30.83;97321.84;8397507;28;20236;-69
2021/04/27 05:21:21;;;;;;;6.00;3.47;;;;;;;10.55;31.03;97332.88;8396875;28;20234;-70
2021/04/27 05:25:23;;;;;;;6.97;3.00;;;;;;;10.67;36.80;97335.72;8398251;28;20214;-70
2021/04/27 05:29:26;;;;;;;5.80;2.80;;;;;;;11.21;36.80;97335.28;8397829;28;20225;-70
2021/04/27 05:33:29;;;;;;;3.27;2.57;;;;;;;11.16;30.12;97330.38;8398052;28;20255;-70
2021/04/27 05:37:31;;;;;;;7.77;2.77;;;;;;;11.01;30.35;97332.06;8396289;28;20210;-70
2021/04/27 05:41:33;;;;;;;6.20;2.93;;;;;;;11.12;30.55;97334.91;8396555;28;20210;-70
2021/04/27 05:45:37;;;;;;;9.40;3.20;;;;;;;11.06;30.05;97331.81;8397434;28;20207;-69
2021/04/27 05:49:38;;;;;;;7.13;2.60;;;;;;;11.05;29.84;97337.94;8396583;28;20202;-69
2021/04/27 05:53:40;;;;;;;8.63;3.00;;;;;;;11.50;29.64;97334.47;8395587;28;20223;-70
2021/04/27 05:57:42;;;;;;;5.50;2.80;;;;;;;11.79;30.10;97328.50;8396306;28;20195;-70
2021/04/27 06:01:45;;;;;;;10.67;3.20;;;;;;;11.50;29.92;97328.44;8396565;28;20210;-69
2021/04/27 06:05:47;;;;;;;8.20;3.30;;;;;;;12.10;28.60;97317.97;8396217;28;20213;-69
2021/04/27 06:09:49;;;;;;;4.90;2.90;;;;;;;12.55;28.16;97323.03;8396417;28;20207;-69
2021/04/27 06:13:50;;;;;;;12.77;3.60;;;;;;;12.24;27.97;97324.06;8397312;28;20719;-69
2021/04/27 06:17:53;;;;;;;8.53;3.33;;;;;;;11.93;27.64;97323.34;8402446;28;20671;-69
2021/04/27 06:21:55;;;;;;;8.80;3.57;;;;;;;11.32;28.17;97320.78;8402543;28;20235;-69
2021/04/27 06:25:57;;;;;;;10.80;3.37;;;;;;;11.13;28.87;97315.00;8402295;28;20207;-69
2021/04/27 06:30:00;;;;;;;9.80;3.87;;;;;;;10.98;28.55;97315.88;8402230;28;20206;-70
2021/04/27 06:34:03;;;;;;;5.87;3.60;;;;;;;11.22;28.60;97309.28;8403782;28;20207;-69
2021/04/27 06:38:07;;;;;;;5.47;3.33;;;;;;;11.41;28.43;97301.28;8384126;28;20644;-69
2021/04/27 06:42:09;;;;;;;6.30;3.40;;;;;;;11.50;28.00;97299.94;8368641;28;20295;-70
2021/04/27 06:46:11;;;;;;;5.87;3.50;;;;;;;11.33;28.29;97301.75;8369720;28;20273;-70
2021/04/27 06:50:14;;;;;;;4.77;3.37;;;;;;;11.55;28.21;97284.91;8367085;28;20219;-70
2021/04/27 06:54:17;;;;;;;6.00;3.80;;;;;;;11.68;28.00;97295.41;8401355;28;20219;-70
2021/04/27 06:58:19;;;;;;;10.33;3.80;;;;;;;11.76;28.12;97287.16;8401380;28;20685;-70
2021/04/27 07:02:21;;;;;;;5.60;3.53;;;;;;;12.05;27.85;97291.47;8401612;28;20650;-70
2021/04/27 07:06:24;;;;;;;9.60;3.80;;;;;;;12.63;26.80;97292.19;8401002;28;20596;-69
2021/04/27 07:10:26;;;;;;;10.40;4.07;;;;;;;12.93;26.48;97288.56;8400567;28;20240;-70
2021/04/27 07:14:28;;;;;;;9.27;4.17;;;;;;;12.58;27.41;97289.03;8400719;28;20307;-70
2021/04/27 07:18:30;;;;;;;8.17;3.90;;;;;;;12.39;27.25;97288.53;8400352;28;20196;-70
2021/04/27 07:22:33;;;;;;;6.67;3.90;;;;;;;12.91;27.63;97286.06;8400199;28;20221;-70
2021/04/27 07:26:36;;;;;;;9.67;4.10;;;;;;;13.43;26.18;97281.00;8399443;28;20203;-70
2021/04/27 07:30:39;;;;;;;10.27;4.10;;;;;;;13.18;26.07;97287.81;8400330;28;20607;-71
2021/04/27 07:34:41;;;;;;;7.37;3.90;;;;;;;12.61;26.68;97277.66;8399150;28;20219;-70
2021/04/27 07:38:44;;;;;;;6.47;4.00;;;;;;;12.89;27.09;97284.50;8400052;28;20207;-70
2021/04/27 07:42:46;;;;;;;5.20;3.73;;;;;;;13.41;26.89;97288.09;8398912;28;20310;-70
2021/04/27 07:46:48;;;;;;;8.63;3.87;;;;;;;14.21;26.00;97285.25;8399274;28;20207;-70
2021/04/27 07:50:50;;;;;;;7.73;4.03;;;;;;;15.16;25.61;97285.44;8399376;28;20199;-70
2021/04/27 07:54:54;;;;;;;8.47;4.47;;;;;;;14.75;24.92;97286.66;8399273;28;20316;-70
2021/04/27 07:58:57;;;;;;;10.13;3.63;;;;;;;16.69;31.10;97282.47;8399320;28;20203;-66
2021/04/27 08:03:00;;;;;;;12.10;3.30;;;;;;;18.00;28.38;97296.13;8398735;28;20210;-67
2021/04/27 08:07:02;;;;;;;10.03;3.50;;;;;;;19.06;28.97;97299.19;8399085;28;20207;-68
2021/04/27 08:11:05;;;;;;;12.77;4.30;;;;;;;18.99;26.02;97290.22;8399144;28;20626;-70
2021/04/27 08:15:09;;;;;;;8.40;3.93;;;;;;;19.24;27.53;97294.09;8397814;28;20227;-69
2021/04/27 08:19:10;;;;;;;17.20;4.03;;;;;;;19.70;26.13;97280.22;8398129;28;20234;-70
2021/04/27 08:23:13;;;;;;;6.70;3.80;;;;;;;19.63;25.62;97281.75;8398591;28;20278;-72
2021/04/27 08:27:32;;;;;;;7.57;3.83;;;;;;;20.09;24.94;97287.16;8397864;28;20187;-70
2021/04/27 08:31:34;;;;;;;7.53;3.77;;;;;;;20.35;24.47;97278.59;8412212;28;20233;-70
2021/04/27 08:35:36;;;;;;;10.80;4.07;;;;;;;19.98;24.81;97277.66;8430132;28;20287;-70
2021/04/27 08:39:38;;;;;;;8.07;4.20;;;;;;;20.33;24.28;97278.75;8431551;28;20202;-69
2021/04/27 08:43:41;;;;;;;7.30;4.17;;;;;;;20.29;22.90;97280.00;8432231;28;20207;-69
2021/04/27 08:47:44;;;;;;;9.73;4.10;;;;;;;20.26;22.93;97275.06;8432024;28;20240;-69
2021/04/27 08:51:46;;;;;;;10.90;5.17;;;;;;;20.43;21.83;97271.66;8431229;28;20206;-67
2021/04/27 08:55:58;;;;;;;12.03;4.00;;;;;;;20.18;23.15;97259.16;8430425;28;20249;-69
2021/04/27 09:00:01;;;;;;;9.63;4.90;;;;;;;19.24;23.20;97273.09;8431860;28;20243;-68
2021/04/27 09:04:03;;;;;;;6.83;3.87;;;;;;;20.26;22.98;97261.91;8430564;28;20207;-69
2021/04/27 09:08:05;;;;;;;8.97;4.40;;;;;;;20.67;22.98;97257.13;8430120;28;20198;-69
2021/04/27 09:12:11;;;;;;;8.17;3.70;;;;;;;20.53;22.77;97258.44;8430800;28;20207;-68
2021/04/27 09:16:26;;;;;;;8.57;4.20;;;;;;;21.12;20.01;97255.44;8430271;28;20651;-68
2021/04/27 09:20:28;;;;;;;6.57;4.80;;;;;;;19.99;21.67;97245.16;8431007;28;20194;-69
2021/04/27 09:24:34;;;;;;;5.80;3.80;;;;;;;20.86;22.23;97243.00;8429493;28;20229;-70
2021/04/27 09:28:36;;;;;;;7.23;3.90;;;;;;;21.56;20.19;97248.38;8429499;28;20179;-68
2021/04/27 09:32:41;;;;;;;7.87;3.63;;;;;;;21.37;21.89;97238.81;8432215;28;20669;-69
2021/04/27 09:36:43;;;;;;;8.00;3.93;;;;;;;21.86;20.40;97236.53;8431543;28;20566;-68
2021/04/27 09:40:47;;;;;;;9.53;4.70;;;;;;;21.92;19.46;97242.16;8420306;28;20601;-69
2021/04/27 09:44:50;;;;;;;6.20;4.13;;;;;;;22.00;20.12;97231.66;8395513;28;20206;-69
2021/04/27 09:48:55;;;;;;;10.07;4.57;;;;;;;21.43;19.87;97237.38;8396575;28;20643;-69
2021/04/27 09:53:05;;;;;;;9.03;5.20;;;;;;;20.96;18.35;97227.13;8397193;28;20603;-60
2021/04/27 09:57:07;;;;;;;8.40;5.33;;;;;;;20.03;18.71;97220.25;8396616;28;20195;-60
2021/04/27 10:01:12;;;;;;;9.03;5.00;;;;;;;20.19;19.67;97218.78;8396325;28;20202;-60
2021/04/27 10:05:15;;;;;;;6.23;5.50;;;;;;;20.13;18.83;97208.88;8394155;28;20579;-60
2021/04/27 10:09:17;;;;;;;8.03;5.40;;;;;;;19.71;19.36;97208.31;8395743;28;20203;-60
2021/04/27 10:13:20;;;;;;;9.60;5.30;;;;;;;19.92;19.34;97212.56;8378710;28;20219;-60
2021/04/27 10:17:23;;;;;;;6.77;5.40;;;;;;;19.73;19.53;97195.88;8384391;28;20227;-60
2021/04/27 10:21:26;;;;;;;9.87;5.60;;;;;;;18.12;20.90;97208.59;8390849;28;20514;-60
2021/04/27 10:25:30;;;;;;;11.23;6.10;;;;;;;19.22;19.41;97191.84;8362148;28;20208;-60
2021/04/27 10:29:31;;;;;;;8.47;5.30;;;;;;;20.26;19.02;97191.75;8380233;28;20222;-60
2021/04/27 10:33:33;;;;;;;12.23;5.87;;;;;;;19.65;19.75;97180.00;8397763;28;20653;-59
2021/04/27 10:38:09;;;;;;;11.13;5.30;;;;;;;19.33;19.75;97183.81;8395574;28;20200;-60
2021/04/27 10:42:19;;;;;;;11.23;5.67;;;;;;;20.34;18.88;97169.16;8294926;28;20196;-61
2021/04/27 10:46:55;;;;;;;8.60;5.40;;;;;;;21.35;18.37;97167.06;8343299;28;20208;-60
2021/04/27 10:50:57;;;;;;;11.57;5.57;;;;;;;20.15;19.17;97162.22;8384432;28;20983;-60
2021/04/27 10:55:26;;;;;;;10.57;5.43;;;;;;;19.33;19.59;97148.88;8394495;28;20223;-60
2021/04/27 10:59:29;;;;;;;10.00;5.90;;;;;;;19.51;20.08;97148.94;8395992;28;20195;-60
2021/04/27 11:03:48;;;;;;;9.63;4.90;;;;;;;19.87;20.04;97154.34;8399708;28;20210;-60
2021/04/27 11:08:10;;;;;;;6.67;4.63;;;;;;;21.75;17.78;97146.38;8401086;28;20313;-72
2021/04/27 11:12:35;;;;;;;7.00;4.97;;;;;;;21.82;17.65;97142.97;8388724;28;20223;-72
2021/04/27 11:16:37;;;;;;;8.40;5.03;;;;;;;22.08;17.50;97147.31;8361840;28;20253;-72
2021/04/27 11:20:54;;;;;;;5.90;4.63;;;;;;;22.10;17.37;97141.88;8369264;28;20545;-72
2021/04/27 11:24:57;;;;;;;7.20;4.57;;;;;;;22.20;16.93;97130.22;8368478;28;20597;-72
2021/04/27 11:29:01;;;;;;;6.43;4.60;;;;;;;21.64;17.91;97129.03;8366263;28;20200;-72
2021/04/27 11:33:04;;;;;;;7.10;4.70;;;;;;;21.55;18.00;97125.56;8366881;28;20364;-72
2021/04/27 11:37:06;;;;;;;12.27;4.83;;;;;;;20.20;18.78;97117.91;8366722;28;20663;-72
2021/04/27 11:41:08;;;;;;;6.50;3.97;;;;;;;20.89;18.67;97117.22;8366562;28;20265;-71
2021/04/27 11:45:13;;;;;;;7.07;4.40;;;;;;;20.81;18.05;97122.44;8365860;28;20262;-71
2021/04/27 11:49:45;;;;;;;9.60;4.60;;;;;;;20.81;18.56;97114.53;8366848;28;20199;-72
2021/04/27 11:54:00;;;;;;;6.63;4.40;;;;;;;20.70;18.00;97112.16;8366629;28;20224;-72
2021/04/27 11:58:08;;;;;;;8.27;3.93;;;;;;;21.58;18.04;97104.16;8366432;28;20606;-72
2021/04/27 12:02:14;;;;;;;6.27;3.67;;;;;;;22.24;17.60;97105.19;8365545;28;20223;-72
2021/04/27 12:06:17;;;;;;;7.60;3.80;;;;;;;21.62;16.66;97100.22;8365973;28;20199;-72
2021/04/27 12:10:19;;;;;;;6.90;4.13;;;;;;;21.05;18.70;97078.84;8365469;28;20204;-72
2021/04/27 12:14:21;;;;;;;6.97;3.97;;;;;;;21.58;18.59;97087.53;8364565;28;20242;-72
2021/04/27 12:18:24;;;;;;;7.67;4.63;;;;;;;20.94;17.88;97087.00;8364531;28;20200;-59
2021/04/27 12:22:26;;;;;;;7.40;3.90;;;;;;;21.36;17.59;97087.09;8379519;28;20207;-59
2021/04/27 12:26:28;;;;;;;11.80;4.30;;;;;;;20.20;18.84;97081.09;8397289;28;20307;-58
2021/04/27 12:30:31;;;;;;;8.60;4.60;;;;;;;20.85;17.99;97084.31;8395754;28;20234;-59
2021/04/27 12:34:34;;;;;;;7.70;3.90;;;;;;;21.22;17.74;97083.22;8389010;28;20250;-58
2021/04/27 12:38:37;;;;;;;6.80;3.77;;;;;;;22.14;17.63;97072.03;8363545;28;20211;-59
2021/04/27 12:42:45;;;;;;;7.17;4.03;;;;;;;22.42;16.69;97062.84;8363509;28;20215;-59
2021/04/27 12:46:48;;;;;;;7.57;4.00;;;;;;;22.94;16.39;97064.31;8364867;28;20529;-72
2021/04/27 12:50:53;;;;;;;10.50;4.30;;;;;;;22.86;16.51;97060.84;8364457;28;20231;-73
2021/04/27 12:55:00;;;;;;;7.93;3.67;;;;;;;22.15;16.65;97063.97;8363667;28;20250;-72
2021/04/27 12:59:09;;;;;;;7.13;4.37;;;;;;;21.11;16.65;97057.16;8363617;28;20239;-72
2021/04/27 13:03:15;;;;;;;12.43;4.40;;;;;;;21.39;17.09;97049.06;8363566;28;20203;-71
2021/04/27 13:07:26;;;;;;;7.40;3.83;;;;;;;21.95;16.83;97047.63;8364036;28;20426;-72
2021/04/27 13:11:28;;;;;;;7.40;4.30;;;;;;;21.80;17.18;97038.66;8364124;28;20193;-71
2021/04/27 13:15:30;;;;;;;8.10;3.73;;;;;;;21.58;17.21;97034.84;8362801;28;20632;-72
2021/04/27 13:19:45;;;;;;;9.17;3.67;;;;;;;22.48;17.18;97023.63;8364125;28;20196;-70
2021/04/27 13:23:48;;;;;;;9.60;4.60;;;;;;;21.63;16.78;97030.75;8364165;28;20188;-61
2021/04/27 13:27:51;;;;;;;7.57;3.60;;;;;;;22.32;17.25;97009.44;8363269;28;20526;-61
2021/04/27 13:32:12;;;;;;;6.87;4.07;;;;;;;21.76;17.52;97008.38;8364049;28;20235;-61
2021/04/27 13:36:19;;;;;;;9.10;3.80;;;;;;;21.41;18.52;97010.22;8364254;28;20280;-61
2021/04/27 13:40:22;;;;;;;6.20;3.90;;;;;;;21.47;17.60;97001.72;8363227;28;20203;-60
2021/04/27 13:44:24;;;;;;;7.77;4.00;;;;;;;21.85;17.78;97000.31;8362964;28;20666;-61
2021/04/27 13:48:27;;;;;;;12.50;3.67;;;;;;;22.05;17.34;96981.56;8363003;28;20246;-61
2021/04/27 13:52:29;;;;;;;8.20;3.70;;;;;;;22.27;16.94;96980.09;8363038;28;20203;-61
2021/04/27 13:56:32;;;;;;;9.00;4.00;;;;;;;22.20;16.72;96977.28;8363230;28;20227;-61
2021/04/27 14:00:34;;;;;;;7.30;3.77;;;;;;;22.39;17.31;96980.59;8363920;28;20678;-61
2021/04/27 14:04:36;;;;;;;6.30;3.90;;;;;;;22.19;17.42;96967.72;8362884;28;20235;-61
2021/04/27 14:08:39;;;;;;;7.20;3.53;;;;;;;20.53;18.21;96973.59;8362763;28;20234;-60
2021/04/27 14:12:42;;;;;;;6.00;3.87;;;;;;;20.84;17.81;96974.75;8362798;28;20206;-61
2021/04/27 14:16:44;;;;;;;7.43;3.60;;;;;;;21.43;17.94;96963.47;8362801;28;20339;-62
2021/04/27 14:20:46;;;;;;;13.00;3.67;;;;;;;22.05;17.26;96949.94;8362960;28;20287;-70
2021/04/27 14:24:48;;;;;;;5.50;3.80;;;;;;;21.88;16.93;96950.94;8363304;28;20208;-70
2021/04/27 14:28:51;;;;;;;6.07;3.30;;;;;;;21.76;18.35;96932.81;8362776;28;20207;-70
2021/04/27 14:32:54;;;;;;;7.53;3.37;;;;;;;22.03;17.60;96929.00;8362754;28;20235;-70
2021/04/27 14:36:56;;;;;;;5.43;3.50;;;;;;;21.35;17.44;96939.78;8365408;28;20330;-70
2021/04/27 14:40:58;;;;;;;7.83;3.57;;;;;;;21.86;18.27;96935.28;8368482;28;20211;-70
2021/04/27 14:45:01;;;;;;;8.83;3.93;;;;;;;22.01;17.84;96936.25;8368214;28;20212;-70
2021/04/27 14:49:03;;;;;;;7.03;3.20;;;;;;;21.32;17.66;96943.53;8369097;28;20204;-71
2021/04/27 14:53:06;;;;;;;4.73;3.33;;;;;;;21.26;17.96;96923.94;8369366;28;20272;-70
2021/04/27 14:57:08;;;;;;;7.00;3.20;;;;;;;21.73;18.51;96929.66;8369585;28;20510;-70
2021/04/27 15:01:11;;;;;;;10.30;3.13;;;;;;;21.93;18.45;96925.69;8369354;28;20199;-70
2021/04/27 15:05:15;;;;;;;14.17;4.10;;;;;;;21.44;18.81;96923.84;8368732;28;20203;-70
2021/04/27 15:09:16;;;;;;;9.97;4.00;;;;;;;20.43;18.40;96921.09;8368946;28;20210;-70
2021/04/27 15:13:18;;;;;;;8.13;3.63;;;;;;;21.36;21.18;96922.97;8368154;28;20207;-71
2021/04/27 15:17:21;;;;;;;8.60;3.90;;;;;;;20.11;19.47;96904.13;8368904;28;20231;-70
2021/04/27 15:21:24;;;;;;;10.73;3.77;;;;;;;20.47;19.23;96898.78;8368219;28;20496;-72
2021/04/27 15:25:27;;;;;;;5.33;3.47;;;;;;;20.97;20.06;96899.84;8367528;28;20203;-71
2021/04/27 15:29:28;;;;;;;6.03;3.67;;;;;;;20.82;19.63;96887.28;8367362;28;20284;-70
2021/04/27 15:33:32;;;;;;;8.80;3.50;;;;;;;20.83;20.12;96888.13;8368095;28;20228;-71
2021/04/27 15:37:34;;;;;;;6.97;3.30;;;;;;;20.60;19.91;96890.47;8367149;28;20226;-71
2021/04/27 15:41:36;;;;;;;10.30;3.73;;;;;;;19.82;19.87;96883.38;8368039;28;20651;-72
2021/04/27 15:45:39;;;;;;;8.60;3.83;;;;;;;19.58;20.00;96878.72;8368203;28;20323;-72
2021/04/27 15:49:42;;;;;;;4.43;3.23;;;;;;;19.95;19.76;96875.09;8366942;28;20211;-70
2021/04/27 15:53:46;;;;;;;11.23;4.13;;;;;;;20.11;19.59;96889.19;8366204;28;20204;-71
2021/04/27 15:57:53;;;;;;;5.73;3.73;;;;;;;20.11;19.85;96875.22;8366991;28;20655;-70
2021/04/27 16:01:54;;;;;;;7.40;3.50;;;;;;;20.31;20.27;96878.44;8366960;28;20227;-71
2021/04/27 16:05:58;;;;;;;8.67;3.53;;;;;;;20.19;20.36;96875.25;8367055;28;20258;-70
2021/04/27 16:10:03;;;;;;;5.77;3.23;;;;;;;20.11;20.16;96869.97;8366746;28;20282;-70
2021/04/27 16:14:05;;;;;;;6.13;3.27;;;;;;;19.94;20.70;96876.09;8366205;28;20199;-71
2021/04/27 16:18:07;;;;;;;10.77;3.40;;;;;;;19.63;20.12;96869.41;8367175;28;20199;-71
2021/04/27 16:22:10;;;;;;;6.40;3.13;;;;;;;19.44;20.45;96866.94;8365733;28;20204;-71
2021/04/27 16:26:13;;;;;;;7.53;3.70;;;;;;;19.42;20.30;96863.63;8364906;28;20204;-61
2021/04/27 16:30:15;;;;;;;8.67;3.50;;;;;;;18.95;20.55;96862.84;8364451;28;20278;-62
2021/04/27 16:34:17;;;;;;;8.40;3.47;;;;;;;19.29;21.20;96861.41;8366044;28;20223;-62
2021/04/27 16:38:23;;;;;;;9.30;4.10;;;;;;;18.84;21.34;96849.94;8366427;28;20283;-61
2021/04/27 16:42:25;;;;;;;9.73;3.30;;;;;;;19.14;20.93;96853.22;8365126;28;20195;-61
2021/04/27 16:46:27;;;;;;;7.97;3.53;;;;;;;18.62;21.17;96858.16;8365991;28;20212;-63
2021/04/27 16:50:28;;;;;;;8.87;3.57;;;;;;;18.48;21.37;96854.22;8364293;28;20204;-62
2021/04/27 16:54:32;;;;;;;8.87;3.27;;;;;;;18.83;21.37;96856.19;8364314;28;20730;-62
2021/04/27 16:58:34;;;;;;;6.63;3.50;;;;;;;18.36;21.86;96854.41;8363753;28;20211;-63
2021/04/27 17:02:35;;;;;;;7.53;3.20;;;;;;;18.35;21.55;96855.41;8363268;28;20248;-62
2021/04/27 17:06:38;;;;;;;8.73;3.40;;;;;;;18.63;22.27;96858.03;8364164;28;20200;-62
2021/04/27 17:10:41;;;;;;;9.73;3.40;;;;;;;18.39;21.36;96852.47;8363807;28;20204;-61
2021/04/27 17:14:43;;;;;;;6.13;3.50;;;;;;;17.95;21.56;96855.63;8363520;28;20566;-61
2021/04/27 17:18:44;;;;;;;5.20;3.03;;;;;;;17.93;21.51;96861.03;8363025;28;20208;-62
2021/04/27 17:22:46;;;;;;;6.37;3.10;;;;;;;17.88;21.81;96863.25;8363592;28;20199;-62
2021/04/27 17:26:49;;;;;;;9.17;4.90;;;;;;;17.91;21.88;96860.31;8362823;28;20210;-61
2021/04/27 17:30:51;;;;;;;8.97;3.60;;;;;;;17.98;22.03;96860.59;8362480;28;20232;-61
2021/04/27 17:34:53;;;;;;;5.93;3.60;;;;;;;17.67;22.33;96865.16;8363914;28;20219;-61
2021/04/27 17:38:55;;;;;;;5.57;3.00;;;;;;;17.71;22.00;96867.38;8363037;28;20211;-60
2021/04/27 17:42:58;;;;;;;7.13;2.97;;;;;;;17.90;22.86;96863.09;8362851;28;20207;-60
2021/04/27 17:47:02;;;;;;;8.10;3.40;;;;;;;17.92;22.62;96856.75;8362825;28;20214;-70
2021/04/27 17:51:05;;;;;;;6.20;3.60;;;;;;;18.05;23.29;96863.47;8362372;28;20219;-71
2021/04/27 17:55:08;;;;;;;4.77;2.80;;;;;;;17.82;22.97;96866.41;8362968;28;20231;-69
2021/04/27 17:59:13;;;;;;;5.17;3.20;;;;;;;17.64;22.51;96868.06;8362753;28;20203;-70
2021/04/27 18:03:15;;;;;;;6.43;3.17;;;;;;;17.69;22.65;96866.69;8363918;28;20680;-70
2021/04/27 18:07:17;;;;;;;6.67;3.20;;;;;;;17.50;22.65;96870.13;8363091;28;20530;-69
2021/04/27 18:11:21;;;;;;;6.17;2.67;;;;;;;17.46;22.85;96870.53;8364550;28;20524;-70
2021/04/27 18:15:25;;;;;;;5.73;3.10;;;;;;;17.34;23.14;96868.06;8368847;28;20585;-70
2021/04/27 18:19:27;;;;;;;6.07;3.50;;;;;;;17.23;23.08;96876.06;8370232;28;20200;-70
2021/04/27 18:23:28;;;;;;;7.20;3.70;;;;;;;16.91;23.74;96877.09;8369549;28;20557;-69
2021/04/27 18:27:31;;;;;;;6.27;3.90;;;;;;;16.95;24.05;96881.09;8370119;28;20208;-69
2021/04/27 18:31:35;;;;;;;7.07;3.27;;;;;;;17.02;24.19;96885.78;8368779;28;20227;-70
2021/04/27 18:35:38;;;;;;;5.43;3.80;;;;;;;17.08;24.40;96877.41;8368228;28;20223;-70
2021/04/27 18:39:41;;;;;;;7.73;3.73;;;;;;;16.94;24.22;96884.66;8367908;28;20200;-70
2021/04/27 18:43:42;;;;;;;4.73;3.40;;;;;;;16.76;24.42;96888.84;8368908;28;20209;-71
2021/04/27 18:47:45;;;;;;;9.70;4.03;;;;;;;16.83;24.33;96889.16;8367708;28;20245;-71
2021/04/27 18:51:48;;;;;;;10.43;3.90;;;;;;;16.77;24.63;96888.72;8368755;28;20569;-72
2021/04/27 18:55:51;;;;;;;7.77;3.80;;;;;;;16.59;24.95;96885.91;8367843;28;20322;-72
2021/04/27 18:59:53;;;;;;;7.63;4.00;;;;;;;16.70;25.34;96892.00;8367408;28;20207;-70
2021/04/27 19:03:55;;;;;;;7.97;4.20;;;;;;;16.68;25.55;96904.34;8366870;28;20196;-72
2021/04/27 19:07:58;;;;;;;7.20;4.03;;;;;;;16.63;26.10;96903.94;8367094;28;20211;-72